createdAt,value
2023-12-22T00:01:27.612Z,6.47
2023-12-22T00:03:54.393Z,6.43
2023-12-22T00:06:21.127Z,6.58
2023-12-22T00:08:47.919Z,6.60
2023-12-22T00:11:14.808Z,6.51
2023-12-22T00:13:41.527Z,6.64
2023-12-22T00:16:08.195Z,6.61
2023-12-22T00:18:34.925Z,6.63
2023-12-22T00:21:01.637Z,6.63
2023-12-22T00:23:28.246Z,6.57
2023-12-22T00:25:54.952Z,6.36
2023-12-22T00:28:21.884Z,6.45
2023-12-22T00:30:48.522Z,6.51
2023-12-22T00:33:15.219Z,6.53
2023-12-22T00:35:41.895Z,6.56
2023-12-22T00:38:09.481Z,6.49
2023-12-22T00:40:36.211Z,6.55
2023-12-22T00:43:02.911Z,6.49
2023-12-22T00:45:29.500Z,6.56
2023-12-22T00:47:56.192Z,6.55
2023-12-22T00:50:22.942Z,6.63
2023-12-22T00:52:49.690Z,6.63
2023-12-22T00:55:16.479Z,6.72
2023-12-22T00:57:43.749Z,6.77
2023-12-22T01:00:13.192Z,6.76
2023-12-22T01:02:40.105Z,6.67
2023-12-22T01:05:07.299Z,6.38
2023-12-22T01:07:34.187Z,5.99
2023-12-22T01:10:02.715Z,5.99
2023-12-22T01:12:29.961Z,5.88
2023-12-22T01:14:59.660Z,5.78
2023-12-22T01:17:26.516Z,5.79
2023-12-22T01:19:53.395Z,5.61
2023-12-22T01:22:21.282Z,5.62
2023-12-22T01:24:47.981Z,5.52
2023-12-22T01:27:14.668Z,5.47
2023-12-22T01:29:41.315Z,5.32
2023-12-22T01:32:08.119Z,5.36
2023-12-22T01:34:34.852Z,5.37
2023-12-22T01:37:01.580Z,5.41
2023-12-22T01:39:28.218Z,5.29
2023-12-22T01:41:54.859Z,5.39
2023-12-22T01:44:21.430Z,5.41
2023-12-22T01:46:48.255Z,5.41
2023-12-22T01:49:16.087Z,5.44
2023-12-22T01:51:43.911Z,5.48
2023-12-22T01:54:11.856Z,5.53
2023-12-22T01:56:38.690Z,5.33
2023-12-22T01:59:05.764Z,5.45
2023-12-22T02:01:33.278Z,5.37
2023-12-22T02:04:00.996Z,5.36
2023-12-22T02:06:30.610Z,5.36
2023-12-22T02:08:58.786Z,5.45
2023-12-22T02:11:25.416Z,5.57
2023-12-22T02:13:52.191Z,5.62
2023-12-22T02:16:44.406Z,5.71
2023-12-22T02:19:23.405Z,5.69
2023-12-22T02:22:10.305Z,5.81
2023-12-22T02:24:37.945Z,5.86
2023-12-22T02:27:04.802Z,5.93
2023-12-22T02:29:36.447Z,5.97
2023-12-22T02:32:10.894Z,5.87
2023-12-22T02:34:38.899Z,5.96
2023-12-22T02:37:08.682Z,6.00
2023-12-22T02:39:36.550Z,5.94
2023-12-22T02:42:06.467Z,5.84
2023-12-22T02:44:33.357Z,5.77
2023-12-22T02:46:59.958Z,5.66
2023-12-22T02:49:26.771Z,5.63
2023-12-22T02:51:53.541Z,5.42
2023-12-22T02:54:20.166Z,5.50
2023-12-22T02:56:48.238Z,5.45
2023-12-22T02:59:15.203Z,5.31
2023-12-22T03:01:41.942Z,5.33
2023-12-22T03:04:08.584Z,5.11
2023-12-22T03:06:35.310Z,5.21
2023-12-22T03:09:02.020Z,5.18
2023-12-22T03:11:28.643Z,5.21
2023-12-22T03:13:55.300Z,5.20
2023-12-22T03:16:22.002Z,5.21
2023-12-22T03:18:48.692Z,5.43
2023-12-22T03:21:21.357Z,5.51
2023-12-22T03:23:48.009Z,5.55
2023-12-22T03:26:14.658Z,5.63
2023-12-22T03:28:41.297Z,5.78
2023-12-22T03:31:08.557Z,5.99
2023-12-22T03:33:35.428Z,5.99
2023-12-22T03:36:02.072Z,6.24
2023-12-22T03:38:28.704Z,6.28
2023-12-22T03:40:55.473Z,6.44
2023-12-22T03:43:22.202Z,6.55
2023-12-22T03:45:48.891Z,6.62
2023-12-22T03:48:15.611Z,6.62
2023-12-22T03:50:42.323Z,6.80
2023-12-22T03:53:08.998Z,6.80
2023-12-22T03:55:35.687Z,6.93
2023-12-22T03:58:02.404Z,7.00
2023-12-22T04:00:29.042Z,7.05
2023-12-22T04:02:58.324Z,7.05
2023-12-22T04:05:25.442Z,7.00
2023-12-22T04:07:52.482Z,6.94
2023-12-22T04:10:19.343Z,6.98
2023-12-22T04:12:46.201Z,7.16
2023-12-22T04:15:12.886Z,7.27
2023-12-22T04:17:39.862Z,7.32
2023-12-22T04:20:08.615Z,7.29
2023-12-22T04:22:35.402Z,7.21
2023-12-22T04:25:02.122Z,7.29
2023-12-22T04:27:28.861Z,7.38
2023-12-22T04:29:55.504Z,7.30
2023-12-22T04:32:22.181Z,7.43
2023-12-22T04:34:48.928Z,7.44
2023-12-22T04:37:15.701Z,7.53
2023-12-22T04:39:42.398Z,7.62
2023-12-22T04:42:09.090Z,7.71
2023-12-22T04:44:35.775Z,7.42
2023-12-22T04:47:02.580Z,6.97
2023-12-22T04:49:29.375Z,6.63
2023-12-22T04:51:57.840Z,6.44
2023-12-22T04:54:25.794Z,6.29
2023-12-22T04:56:52.363Z,6.12
2023-12-22T04:59:19.002Z,6.03
2023-12-22T05:01:46.727Z,6.08
2023-12-22T05:04:13.582Z,5.98
2023-12-22T05:06:40.253Z,5.97
2023-12-22T05:09:07.374Z,6.07
2023-12-22T05:11:34.000Z,6.23
2023-12-22T05:14:02.342Z,6.34
2023-12-22T05:16:32.180Z,6.46
2023-12-22T05:18:59.758Z,6.65
2023-12-22T05:21:26.528Z,6.74
2023-12-22T05:23:53.253Z,6.89
2023-12-22T05:26:20.879Z,6.99
2023-12-22T05:28:47.956Z,7.01
2023-12-22T05:31:14.843Z,7.16
2023-12-22T05:33:41.428Z,7.32
2023-12-22T05:36:08.148Z,7.34
2023-12-22T05:38:38.699Z,7.33
2023-12-22T05:41:07.596Z,7.32
2023-12-22T05:43:34.512Z,7.56
2023-12-22T05:46:01.726Z,7.62
2023-12-22T05:48:29.055Z,7.66
2023-12-22T05:50:59.101Z,7.76
2023-12-22T05:53:26.114Z,7.75
2023-12-22T05:55:53.014Z,7.79
2023-12-22T05:58:19.882Z,7.69
2023-12-22T06:00:46.626Z,7.94
2023-12-22T06:03:13.585Z,7.98
2023-12-22T06:05:40.513Z,7.96
2023-12-22T06:08:07.485Z,7.95
2023-12-22T06:10:34.214Z,8.00
2023-12-22T06:13:04.574Z,8.03
2023-12-22T06:15:31.355Z,8.01
2023-12-22T06:17:59.227Z,8.01
2023-12-22T06:20:27.393Z,8.04
2023-12-22T06:22:54.180Z,8.11
2023-12-22T06:25:20.979Z,8.01
2023-12-22T06:27:47.948Z,7.97
2023-12-22T06:30:14.942Z,7.92
2023-12-22T06:32:42.418Z,7.95
2023-12-22T06:35:12.804Z,7.84
2023-12-22T06:37:41.079Z,7.92
2023-12-22T06:40:08.341Z,7.87
2023-12-22T06:42:35.004Z,7.93
2023-12-22T06:45:01.766Z,7.94
2023-12-22T06:47:29.024Z,7.99
2023-12-22T06:49:56.005Z,8.04
2023-12-22T06:52:22.909Z,8.01
2023-12-22T06:54:49.612Z,8.06
2023-12-22T06:57:18.214Z,8.19
2023-12-22T06:59:46.526Z,8.15
2023-12-22T07:02:19.392Z,8.12
2023-12-22T07:05:10.824Z,8.18
2023-12-22T07:07:38.675Z,8.15
2023-12-22T07:10:05.894Z,8.21
2023-12-22T07:12:33.367Z,8.19
2023-12-22T07:15:00.577Z,8.19
2023-12-22T07:17:27.405Z,8.20
2023-12-22T07:19:56.201Z,8.12
2023-12-22T07:22:22.880Z,8.04
2023-12-22T07:24:50.636Z,8.01
2023-12-22T07:27:17.262Z,8.17
2023-12-22T07:29:43.878Z,8.19
2023-12-22T07:32:10.548Z,8.26
2023-12-22T07:34:38.973Z,8.33
2023-12-22T07:37:10.448Z,8.38
2023-12-22T07:39:38.229Z,8.40
2023-12-22T07:42:05.420Z,8.45
2023-12-22T07:44:33.723Z,8.44
2023-12-22T07:47:02.753Z,8.53
2023-12-22T07:49:31.144Z,8.59
2023-12-22T07:51:58.686Z,8.53
2023-12-22T07:54:26.171Z,8.68
2023-12-22T07:56:53.249Z,8.69
2023-12-22T07:59:27.202Z,8.75
2023-12-22T08:01:58.252Z,8.84
2023-12-22T08:04:24.990Z,8.87
2023-12-22T08:06:51.877Z,8.87
2023-12-22T08:09:18.574Z,8.85
2023-12-22T08:11:47.781Z,8.68
2023-12-22T08:14:14.640Z,8.79
2023-12-22T08:16:41.359Z,8.78
2023-12-22T08:19:08.176Z,8.80
2023-12-22T08:21:44.133Z,8.80
2023-12-22T08:24:19.339Z,8.78
2023-12-22T08:26:50.429Z,8.81
2023-12-22T08:29:17.638Z,8.87
2023-12-22T08:31:47.390Z,8.78
2023-12-22T08:34:14.245Z,8.86
2023-12-22T08:36:41.297Z,8.96
2023-12-22T08:39:09.315Z,9.01
2023-12-22T08:41:38.615Z,9.01
2023-12-22T08:44:07.392Z,8.94
2023-12-22T08:46:35.275Z,8.93
2023-12-22T08:49:02.642Z,9.00
2023-12-22T08:51:29.909Z,8.89
2023-12-22T08:53:56.686Z,8.73
2023-12-22T08:56:24.435Z,8.60
2023-12-22T08:59:00.370Z,8.61
2023-12-22T09:01:27.203Z,8.63
2023-12-22T09:03:54.195Z,8.67
2023-12-22T09:06:23.251Z,8.68
2023-12-22T09:08:50.997Z,8.59
2023-12-22T09:11:20.426Z,8.57
2023-12-22T09:13:47.467Z,8.67
2023-12-22T09:16:16.920Z,8.70
2023-12-22T09:18:43.985Z,8.76
2023-12-22T09:21:10.754Z,8.84
2023-12-22T09:23:37.428Z,8.97
2023-12-22T09:26:05.780Z,9.06
2023-12-22T09:28:32.442Z,9.11
2023-12-22T09:30:59.151Z,9.00
2023-12-22T09:33:25.974Z,9.21
2023-12-22T09:35:52.740Z,9.03
2023-12-22T09:38:19.763Z,9.11
2023-12-22T09:40:46.552Z,9.16
2023-12-22T09:43:15.894Z,9.12
2023-12-22T09:45:43.539Z,9.03
2023-12-22T09:48:12.167Z,9.17
2023-12-22T09:50:40.777Z,9.18
2023-12-22T09:53:08.075Z,9.21
2023-12-22T09:55:36.498Z,9.31
2023-12-22T09:58:05.128Z,9.41
2023-12-22T10:00:33.179Z,9.49
2023-12-22T10:02:59.928Z,9.49
2023-12-22T10:05:26.696Z,9.58
2023-12-22T10:07:54.723Z,9.57
2023-12-22T10:10:22.941Z,9.60
2023-12-22T10:12:53.005Z,9.57
2023-12-22T10:15:36.708Z,9.66
2023-12-22T10:18:14.752Z,9.67
2023-12-22T10:20:41.606Z,9.73
2023-12-22T10:23:42.003Z,9.70
2023-12-22T10:26:20.370Z,9.79
2023-12-22T10:29:09.282Z,9.67
2023-12-22T10:32:08.428Z,9.86
2023-12-22T10:34:36.158Z,9.87
2023-12-22T10:37:03.425Z,9.95
2023-12-22T10:39:31.266Z,10.02
2023-12-22T10:41:59.228Z,10.11
2023-12-22T10:44:26.790Z,10.20
2023-12-22T10:46:55.589Z,10.31
2023-12-22T10:49:23.449Z,10.27
2023-12-22T10:51:51.281Z,10.44
2023-12-22T10:54:18.944Z,10.53
2023-12-22T10:56:45.706Z,10.58
2023-12-22T10:59:12.753Z,10.60
2023-12-22T11:01:39.954Z,10.53
2023-12-22T11:04:08.830Z,10.47
2023-12-22T11:06:38.080Z,10.50
2023-12-22T11:09:11.681Z,10.46
2023-12-22T11:11:39.849Z,10.42
2023-12-22T11:14:08.084Z,10.39
2023-12-22T11:16:36.691Z,10.53
2023-12-22T11:19:04.521Z,10.59
2023-12-22T11:21:31.885Z,10.50
2023-12-22T11:23:58.716Z,10.52
2023-12-22T11:26:26.132Z,10.39
2023-12-22T11:28:54.202Z,10.53
2023-12-22T11:31:21.936Z,10.63
2023-12-22T11:33:58.757Z,10.63
2023-12-22T11:36:32.726Z,10.69
2023-12-22T11:39:00.441Z,10.65
2023-12-22T11:41:30.885Z,10.74
2023-12-22T11:43:59.631Z,10.72
2023-12-22T11:46:26.460Z,10.67
2023-12-22T11:48:53.996Z,10.65
2023-12-22T11:51:21.923Z,10.57
2023-12-22T11:53:48.602Z,10.40
2023-12-22T11:56:15.503Z,10.27
2023-12-22T11:58:53.884Z,10.26
2023-12-22T12:01:22.724Z,10.14
2023-12-22T12:03:53.824Z,10.26
2023-12-22T12:06:32.302Z,10.03
2023-12-22T12:09:00.362Z,9.90
2023-12-22T12:12:01.433Z,9.74
2023-12-22T12:14:32.505Z,9.62
2023-12-22T12:17:12.940Z,9.58
2023-12-22T12:19:42.948Z,9.56
2023-12-22T12:22:10.338Z,9.57
2023-12-22T12:24:38.951Z,9.65
2023-12-22T12:27:06.024Z,9.71
2023-12-22T12:29:35.947Z,9.77
2023-12-22T12:32:07.156Z,9.94
2023-12-22T12:34:34.205Z,9.94
2023-12-22T12:37:01.856Z,10.16
2023-12-22T12:39:32.466Z,10.17
2023-12-22T12:42:03.415Z,10.34
2023-12-22T12:44:33.487Z,10.36
2023-12-22T12:47:01.638Z,10.36
2023-12-22T12:49:28.936Z,10.36
2023-12-22T12:51:55.759Z,10.36
2023-12-22T12:54:22.597Z,10.37
2023-12-22T12:56:49.623Z,10.33
2023-12-22T12:59:19.192Z,10.39
2023-12-22T13:01:47.871Z,10.26
2023-12-22T13:04:15.780Z,10.38
2023-12-22T13:06:50.048Z,10.42
2023-12-22T13:09:17.764Z,10.32
2023-12-22T13:11:47.093Z,10.17
2023-12-22T13:14:24.112Z,10.21
2023-12-22T13:16:51.518Z,10.30
2023-12-22T13:19:18.340Z,10.30
2023-12-22T13:21:45.121Z,10.44
2023-12-22T13:24:13.668Z,10.54
2023-12-22T13:26:41.173Z,10.56
2023-12-22T13:29:08.504Z,10.57
2023-12-22T13:31:38.333Z,10.64
2023-12-22T13:34:09.455Z,10.65
2023-12-22T13:36:37.805Z,10.62
2023-12-22T13:39:06.412Z,10.71
2023-12-22T13:41:41.592Z,10.58
2023-12-22T13:44:09.250Z,10.71
2023-12-22T13:46:36.705Z,10.80
2023-12-22T13:49:04.276Z,10.82
2023-12-22T13:51:44.646Z,10.78
2023-12-22T13:54:12.057Z,10.59
2023-12-22T13:56:43.301Z,10.58
2023-12-22T13:59:10.158Z,10.50
2023-12-22T14:01:37.344Z,10.30
2023-12-22T14:04:04.187Z,10.48
2023-12-22T14:06:31.150Z,10.50
2023-12-22T14:08:58.444Z,10.52
2023-12-22T14:11:25.094Z,10.55
2023-12-22T14:13:51.905Z,10.58
2023-12-22T14:16:18.670Z,10.58
2023-12-22T14:18:47.029Z,10.56
2023-12-22T14:21:13.810Z,10.27
2023-12-22T14:23:40.430Z,10.23
2023-12-22T14:26:07.380Z,10.01
2023-12-22T14:28:34.184Z,10.07
2023-12-22T14:31:00.902Z,9.96
2023-12-22T14:33:27.752Z,9.88
2023-12-22T14:35:54.988Z,9.94
2023-12-22T14:38:21.782Z,9.92
2023-12-22T14:40:48.588Z,10.01
2023-12-22T14:43:15.282Z,10.12
2023-12-22T14:45:42.137Z,10.08
2023-12-22T14:48:08.954Z,10.25
2023-12-22T14:50:36.647Z,10.31
2023-12-22T14:53:03.808Z,10.37
2023-12-22T14:55:30.631Z,10.40
2023-12-22T14:57:57.316Z,10.47
2023-12-22T15:00:23.876Z,10.41
2023-12-22T15:02:50.942Z,10.40
2023-12-22T15:05:18.821Z,10.20
2023-12-22T15:07:46.089Z,10.15
2023-12-22T15:10:13.072Z,9.98
2023-12-22T15:12:43.640Z,10.03
2023-12-22T15:15:10.612Z,10.06
2023-12-22T15:17:37.361Z,10.04
2023-12-22T15:20:07.585Z,10.06
2023-12-22T15:22:36.169Z,9.94
2023-12-22T15:25:02.873Z,10.03
2023-12-22T15:27:29.618Z,9.93
2023-12-22T15:29:56.266Z,10.02
2023-12-22T15:32:23.089Z,10.03
2023-12-22T15:34:49.969Z,10.00
2023-12-22T15:37:16.651Z,9.98
2023-12-22T15:39:43.294Z,9.89
2023-12-22T15:42:11.044Z,9.81
2023-12-22T15:44:41.802Z,9.94
2023-12-22T15:47:09.565Z,9.94
2023-12-22T15:49:41.014Z,9.95
2023-12-22T15:52:08.666Z,9.97
2023-12-22T15:54:35.851Z,9.97
2023-12-22T15:57:03.575Z,10.05
2023-12-22T15:59:30.311Z,10.09
2023-12-22T16:01:57.021Z,10.07
2023-12-22T16:04:23.742Z,9.94
2023-12-22T16:06:50.420Z,9.96
2023-12-22T16:09:17.016Z,10.19
2023-12-22T16:11:43.647Z,10.24
2023-12-22T16:14:10.426Z,10.19
2023-12-22T16:16:37.272Z,10.22
2023-12-22T16:19:04.733Z,10.21
2023-12-22T16:21:32.738Z,10.16
2023-12-22T16:23:59.403Z,10.13
2023-12-22T16:26:26.123Z,10.11
2023-12-22T16:28:52.877Z,10.15
2023-12-22T16:31:21.798Z,9.88
2023-12-22T16:33:49.734Z,10.17
2023-12-22T16:36:16.527Z,10.11
2023-12-22T16:38:43.177Z,10.22
2023-12-22T16:41:10.624Z,10.21
2023-12-22T16:43:37.529Z,10.26
2023-12-22T16:46:04.455Z,10.25
2023-12-22T16:48:31.136Z,10.22
2023-12-22T16:51:02.338Z,10.18
2023-12-22T16:53:29.728Z,10.27
2023-12-22T16:55:56.619Z,10.23
2023-12-22T16:58:23.266Z,10.22
2023-12-22T17:01:13.943Z,10.13
2023-12-22T17:03:38.034Z,10.10
2023-12-22T17:06:05.763Z,10.18
2023-12-22T17:08:34.875Z,10.20
2023-12-22T17:11:02.182Z,10.20
2023-12-22T17:13:29.034Z,10.07
2023-12-22T17:15:55.806Z,9.98
2023-12-22T17:18:22.656Z,9.96
2023-12-22T17:20:58.979Z,9.95
2023-12-22T17:23:29.302Z,9.96
2023-12-22T17:25:57.214Z,9.98
2023-12-22T17:28:24.356Z,10.03
2023-12-22T17:30:52.115Z,10.02
2023-12-22T17:33:19.271Z,10.03
2023-12-22T17:35:46.248Z,9.93
2023-12-22T17:38:13.212Z,10.08
2023-12-22T17:40:40.001Z,10.14
2023-12-22T17:43:07.630Z,10.19
2023-12-22T17:45:34.510Z,10.15
2023-12-22T17:48:01.439Z,10.21
2023-12-22T17:50:28.250Z,10.15
2023-12-22T17:52:55.083Z,10.09
2023-12-22T17:55:21.820Z,10.04
2023-12-22T17:57:48.784Z,9.97
2023-12-22T18:00:16.406Z,10.04
2023-12-22T18:02:43.132Z,9.96
2023-12-22T18:05:10.069Z,9.88
2023-12-22T18:07:36.967Z,9.88
2023-12-22T18:10:04.327Z,9.96
2023-12-22T18:12:33.609Z,9.93
2023-12-22T18:15:02.612Z,9.85
2023-12-22T18:17:29.284Z,9.89
2023-12-22T18:19:56.155Z,9.91
2023-12-22T18:22:22.872Z,9.86
2023-12-22T18:24:49.842Z,9.78
2023-12-22T18:27:16.539Z,9.81
2023-12-22T18:29:43.548Z,9.74
2023-12-22T18:32:10.385Z,9.64
2023-12-22T18:34:40.341Z,9.54
2023-12-22T18:37:07.385Z,9.66
2023-12-22T18:39:34.035Z,9.63
2023-12-22T18:42:05.736Z,9.56
2023-12-22T18:44:32.524Z,9.44
2023-12-22T18:46:59.271Z,9.51
2023-12-22T18:49:26.179Z,9.52
2023-12-22T18:51:52.830Z,9.48
2023-12-22T18:54:20.667Z,9.53
2023-12-22T18:56:49.424Z,9.58
2023-12-22T18:59:16.749Z,9.65
2023-12-22T19:01:53.534Z,9.69
2023-12-22T19:04:31.726Z,9.64
2023-12-22T19:06:58.469Z,9.67
2023-12-22T19:09:25.328Z,9.73
2023-12-22T19:11:52.081Z,9.75
2023-12-22T19:14:19.124Z,9.84
2023-12-22T19:16:45.898Z,9.76
2023-12-22T19:19:12.783Z,9.82
2023-12-22T19:21:39.505Z,9.79
2023-12-22T19:24:06.257Z,9.86
2023-12-22T19:26:33.208Z,9.91
2023-12-22T19:28:59.894Z,9.92
2023-12-22T19:31:29.625Z,9.94
2023-12-22T19:33:56.615Z,9.98
2023-12-22T19:36:23.463Z,9.97
2023-12-22T19:38:50.129Z,9.98
2023-12-22T19:41:16.867Z,9.98
2023-12-22T19:43:43.685Z,9.94
2023-12-22T19:46:11.617Z,9.85
2023-12-22T19:48:38.353Z,9.79
2023-12-22T19:51:09.703Z,9.76
2023-12-22T19:53:38.392Z,9.69
2023-12-22T19:56:05.502Z,9.70
2023-12-22T19:58:32.292Z,9.64
2023-12-22T20:00:59.071Z,9.31
2023-12-22T20:03:27.688Z,8.82
2023-12-22T20:05:55.887Z,8.34
2023-12-22T20:08:22.650Z,8.18
2023-12-22T20:10:51.258Z,8.06
2023-12-22T20:13:19.636Z,8.07
2023-12-22T20:15:47.464Z,7.94
2023-12-22T20:18:14.349Z,7.81
2023-12-22T20:20:41.532Z,7.84
2023-12-22T20:23:09.259Z,7.87
2023-12-22T20:25:36.087Z,7.75
2023-12-22T20:28:02.945Z,7.86
2023-12-22T20:30:30.352Z,7.86
2023-12-22T20:32:57.258Z,7.87
2023-12-22T20:35:23.899Z,7.81
2023-12-22T20:37:51.049Z,7.84
2023-12-22T20:40:18.027Z,7.83
2023-12-22T20:42:44.710Z,7.81
2023-12-22T20:45:11.600Z,7.84
2023-12-22T20:47:38.375Z,7.92
2023-12-22T20:50:06.406Z,7.95
2023-12-22T20:52:34.944Z,8.00
2023-12-22T20:55:02.079Z,7.97
2023-12-22T20:57:28.787Z,7.96
2023-12-22T20:59:55.520Z,8.04
2023-12-22T21:02:22.804Z,8.03
2023-12-22T21:04:51.531Z,7.98
2023-12-22T21:07:24.478Z,8.05
2023-12-22T21:09:51.900Z,8.02
2023-12-22T21:12:18.581Z,8.01
2023-12-22T21:14:47.431Z,8.01
2023-12-22T21:17:18.120Z,7.97
2023-12-22T21:19:44.819Z,7.98
2023-12-22T21:22:11.506Z,7.96
2023-12-22T21:24:39.315Z,7.87
2023-12-22T21:27:05.952Z,7.98
2023-12-22T21:29:34.094Z,7.98
2023-12-22T21:32:01.234Z,8.01
2023-12-22T21:34:27.905Z,7.86
2023-12-22T21:36:54.634Z,7.95
2023-12-22T21:39:21.278Z,7.95
2023-12-22T21:41:51.266Z,7.93
2023-12-22T21:44:18.271Z,7.90
2023-12-22T21:46:45.927Z,7.84
2023-12-22T21:49:13.849Z,7.92
2023-12-22T21:51:41.715Z,7.95
2023-12-22T21:54:11.475Z,7.96
2023-12-22T21:56:38.709Z,7.96
2023-12-22T21:59:05.573Z,7.93
2023-12-22T22:01:32.362Z,7.90
2023-12-22T22:03:59.292Z,7.99
2023-12-22T22:06:25.986Z,7.96
2023-12-22T22:08:52.955Z,8.03
2023-12-22T22:11:20.241Z,8.05
2023-12-22T22:13:47.481Z,8.02
2023-12-22T22:16:14.299Z,7.93
2023-12-22T22:18:41.035Z,8.06
2023-12-22T22:21:07.784Z,7.98
2023-12-22T22:23:34.509Z,7.97
2023-12-22T22:26:02.840Z,8.06
2023-12-22T22:28:29.472Z,8.11
2023-12-22T22:30:56.187Z,8.08
2023-12-22T22:33:23.052Z,8.01
2023-12-22T22:35:51.478Z,8.09
2023-12-22T22:38:18.218Z,8.09
2023-12-22T22:40:46.113Z,8.15
2023-12-22T22:43:12.776Z,8.12
2023-12-22T22:45:40.041Z,8.07
2023-12-22T22:48:07.249Z,8.13
2023-12-22T22:50:35.777Z,8.05
2023-12-22T22:53:02.585Z,7.92
2023-12-22T22:55:31.361Z,7.97
2023-12-22T22:57:58.071Z,7.94
2023-12-22T23:00:29.511Z,7.91
2023-12-22T23:02:57.466Z,7.74
2023-12-22T23:05:25.664Z,7.66
2023-12-22T23:07:52.697Z,7.61
2023-12-22T23:10:22.776Z,7.56
2023-12-22T23:12:50.446Z,7.65
2023-12-22T23:15:17.170Z,7.51
2023-12-22T23:17:43.957Z,7.61
2023-12-22T23:20:11.035Z,7.79
2023-12-22T23:22:37.824Z,7.76
2023-12-22T23:25:05.525Z,7.96
2023-12-22T23:27:32.587Z,7.89
2023-12-22T23:29:59.351Z,7.98
2023-12-22T23:32:26.083Z,8.05
2023-12-22T23:34:54.367Z,8.09
2023-12-22T23:37:21.186Z,8.04
2023-12-22T23:39:47.924Z,8.01
2023-12-22T23:42:14.690Z,8.09
2023-12-22T23:44:41.433Z,8.14
2023-12-22T23:47:08.148Z,8.15
2023-12-22T23:49:34.907Z,8.06
2023-12-22T23:52:01.789Z,8.15
2023-12-22T23:54:28.433Z,8.21
2023-12-22T23:56:55.072Z,8.23
2023-12-22T23:59:21.885Z,8.15
